Hlavní strana
METAR-TAF:

METAR-TAF

Letiště :

Džíbútí, Džibutsko

zeměpisná šířka: 11-33N, zeměpisná délka: 043-10E, výška: 49 m

Aktuální stav počasí

Zpráva byla vytvořena před 2 hodinami a 6 minutami, v 09:00 UTC
Východní vítr 10 kt
Teplota 30°C
Vlhkost vzduchu 66%
Tlak 1014 hPa
Viditelnost 10 km a více
Skoro jasno ve výšce 2300 ft

METAR: HDAM 250900Z 08010KT 9999 FEW023 30/23 Q1014

Čas: 14:06 (11:06 UTC)

Předpověď počasí

Zpráva byla vytvořena před 5 hodinami a 6 minutami, v 06:00 UTC
Předpověď platná od 25 v 06 UTC do 26 v 06 UTC
Východní vítr 10 kt
Viditelnost 10 km a více
Polojasno ve výšce 2300 ft
Změna
od 25 v 15 UTC do 25 v 21 UTC
vítr z různých směrů 5 kt
Jasno
Změna
od 26 v 00 UTC do 26 v 06 UTC
Severní vítr kt
Viditelnost: 9000 m
Polojasno ve výšce 2000 ft
zákal

TAF: HDAM 250600Z 2506/2606 08010KT 9999 SCT023 BECMG 2515/2521 VRB05KT SKC BECMG 2600/2606 00000KT 9000 HZ SCT020

Stav a předpovědi počasí z více než 4 000 letišť (zprávy METAR a TAF).

Červené a žluté tečky na mapě představují dostupné meteorologické stanice.

Když kurzor umístíte na tečku, zobrazí se název stanice.

Pak kliknutím zobrazíte stav a předpověď počasí.

Chcete-li změnit mapu, kliknutím na zelené tlačítko se znaménkem +mapu přiblížíte, kliknutím na zelené tlačítko se znaménkem – mapu oddálíte a kliknutím na zelené šipky přejdete na sousední mapy.


METAR-TAF: